Time;durP1;ratioP1;P1;durP2;ratioP2;P2;SDS_P1;SDS_P2;PMS_P1;PMS_P2;Temp;Humidity;BMP_temperature;BMP_pressure;BME280_temperature;BME280_humidity;BME280_pressure;Samples;Min_cycle;Max_cycle;Signal;HPM_P1;HPM_P2
2021/03/20 00:01:44;;;;;;;;;;;;;;;14.30;65.25;101109.97;5064660;28;1432;-64
2021/03/20 00:04:09;;;;;;;;;;;;;;;14.29;65.02;101115.38;5064497;28;1379;-64
2021/03/20 00:06:37;;;;;;;;;;;;;;;14.28;65.26;101108.31;5067206;28;1947;-58
2021/03/20 00:09:07;;;;;;;;;;;;;;;14.29;65.08;101112.72;5068288;28;1356;-59
2021/03/20 00:11:32;;;;;;;;;;;;;;;14.27;65.17;101120.78;5064444;28;1607;-64
2021/03/20 00:13:58;;;;;;;;;;;;;;;14.25;65.47;101125.34;5069084;28;1345;-58
2021/03/20 00:16:24;;;;;;;;;;;;;;;14.29;65.10;101134.84;5068075;28;1599;-64
2021/03/20 00:18:49;;;;;;;;;;;;;;;14.28;65.59;101145.56;5066274;28;2393;-65
2021/03/20 00:21:15;;;;;;;;;;;;;;;14.25;65.24;101132.47;5068983;28;794;-58
2021/03/20 00:23:40;;;;;;;;;;;;;;;14.28;65.11;101146.44;5068336;28;1719;-58
2021/03/20 00:26:06;;;;;;;;;;;;;;;14.26;65.07;101140.34;5068756;28;1981;-59
2021/03/20 00:28:31;;;;;;;;;;;;;;;14.26;65.31;101132.34;5062126;28;1727;-64
2021/03/20 00:30:58;;;;;;;;;;;;;;;14.29;65.91;101139.31;5069494;28;1356;-64
2021/03/20 00:33:24;;;;;;;;;;;;;;;14.23;65.49;101124.59;5060895;28;1485;-58
2021/03/20 00:35:50;;;;;;;;;;;;;;;14.29;65.00;101129.53;5068941;28;864;-58
2021/03/20 00:38:16;;;;;;;;;;;;;;;14.24;65.10;101123.63;5064134;28;1682;-64
2021/03/20 00:40:42;;;;;;;;;;;;;;;14.24;64.97;101126.28;5071053;28;1715;-64
2021/03/20 00:43:07;;;;;;;;;;;;;;;14.26;65.07;101127.03;5066381;28;1785;-64
2021/03/20 00:45:33;;;;;;;;;;;;;;;14.29;65.10;101134.00;5062276;28;1959;-63
2021/03/20 00:48:09;;;;;;;;;;;;;;;14.26;64.93;101123.53;5073770;28;754;-58
2021/03/20 00:50:35;;;;;;;;;;;;;;;14.28;64.90;101118.97;5068603;28;1422;-59
2021/03/20 00:53:00;;;;;;;;;;;;;;;14.25;65.05;101125.34;5057370;28;1820;-64
2021/03/20 00:55:26;;;;;;;;;;;;;;;14.25;65.08;101116.50;5066922;28;1552;-65
2021/03/20 00:57:51;;;;;;;;;;;;;;;14.23;64.79;101124.59;5068547;28;840;-64
2021/03/20 01:00:18;;;;;;;;;;;;;;;14.28;65.08;101121.63;5067876;28;1687;-58
2021/03/20 01:02:44;;;;;;;;;;;;;;;14.27;64.75;101119.94;5056965;28;1459;-58
2021/03/20 01:05:10;;;;;;;;;;;;;;;14.27;64.66;101115.47;5064227;28;1874;-58
2021/03/20 01:07:35;;;;;;;;;;;;;;;14.26;64.60;101116.41;5068397;28;1239;-58
2021/03/20 01:10:01;;;;;;;;;;;;;;;14.29;64.58;101121.53;5060810;28;1536;-64
2021/03/20 01:12:26;;;;;;;;;;;;;;;14.30;64.68;101109.09;5069360;28;1295;-64
2021/03/20 01:14:52;;;;;;;;;;;;;;;14.25;64.85;101111.19;5064990;28;1368;-64
2021/03/20 01:17:17;;;;;;;;;;;;;;;14.23;64.77;101108.63;5065504;28;1548;-58
2021/03/20 01:19:43;;;;;;;;;;;;;;;14.24;64.96;101112.97;5065617;28;1595;-64
2021/03/20 01:22:08;;;;;;;;;;;;;;;14.21;65.21;101118.50;5067857;28;1580;-58
2021/03/20 01:24:33;;;;;;;;;;;;;;;14.19;65.06;101131.03;5064687;28;1997;-58
2021/03/20 01:26:59;;;;;;;;;;;;;;;14.19;65.05;101125.72;5066731;28;1200;-64
2021/03/20 01:29:24;;;;;;;;;;;;;;;14.20;65.48;101138.06;5066422;28;1622;-58
2021/03/20 01:31:51;;;;;;;;;;;;;;;14.19;64.79;101136.38;5064496;28;813;-58
2021/03/20 01:34:16;;;;;;;;;;;;;;;14.22;65.11;101141.47;5070709;28;1678;-65
2021/03/20 01:36:42;;;;;;;;;;;;;;;14.19;65.25;101152.31;5067048;28;1363;-64
2021/03/20 01:39:07;;;;;;;;;;;;;;;14.15;65.51;101152.63;5067767;28;1583;-58
2021/03/20 01:41:33;;;;;;;;;;;;;;;14.22;65.16;101169.91;5065882;28;1485;-64
2021/03/20 01:43:58;;;;;;;;;;;;;;;14.22;64.81;101169.91;5066030;28;1291;-58
2021/03/20 01:46:41;;;;;;;;;;;;;;;14.16;64.93;101165.78;5064073;28;1949;-64
2021/03/20 01:49:25;;;;;;;;;;;;;;;14.17;64.82;101166.69;5070522;28;1442;-58
2021/03/20 01:52:16;;;;;;;;;;;;;;;14.15;64.97;101141.97;5068857;28;860;-64
2021/03/20 01:54:42;;;;;;;;;;;;;;;14.16;64.91;101163.13;5066643;28;1563;-59
2021/03/20 01:57:07;;;;;;;;;;;;;;;14.16;65.19;101164.94;5064449;28;1667;-58
2021/03/20 01:59:33;;;;;;;;;;;;;;;14.14;65.03;101159.72;5064833;28;1357;-65
2021/03/20 02:01:59;;;;;;;;;;;;;;;14.16;65.22;101160.47;5060248;28;1369;-64
2021/03/20 02:04:24;;;;;;;;;;;;;;;14.13;64.81;101156.22;5059835;28;1894;-64
2021/03/20 02:06:50;;;;;;;;;;;;;;;14.14;64.96;101143.75;5061548;28;1407;-64
2021/03/20 02:09:15;;;;;;;;;;;;;;;14.17;64.82;101154.22;5064376;28;1218;-58
2021/03/20 02:11:44;;;;;;;;;;;;;;;14.17;64.86;101161.34;5064112;28;1575;-64
2021/03/20 02:14:27;;;;;;;;;;;;;;;14.17;64.74;101167.53;5062805;28;1551;-64
2021/03/20 02:16:56;;;;;;;;;;;;;;;14.17;64.75;101162.22;5065421;28;1324;-58
2021/03/20 02:19:36;;;;;;;;;;;;;;;14.19;64.10;101159.47;5061198;28;1255;-65
2021/03/20 02:22:03;;;;;;;;;;;;;;;14.18;65.12;101161.25;5066358;28;1345;-65
2021/03/20 02:24:32;;;;;;;;;;;;;;;14.15;65.16;101158.78;5066017;28;1959;-58
2021/03/20 02:27:16;;;;;;;;;;;;;;;14.17;64.94;101161.34;5064551;28;1360;-58
2021/03/20 02:30:00;;;;;;;;;;;;;;;14.15;64.97;101163.25;5063994;28;1361;-64
2021/03/20 02:32:28;;;;;;;;;;;;;;;14.19;64.61;101181.59;5063106;28;1363;-58
2021/03/20 02:35:02;;;;;;;;;;;;;;;14.18;64.61;101171.03;5062853;28;1790;-58
2021/03/20 02:37:35;;;;;;;;;;;;;;;14.18;64.60;101185.19;5064342;28;1548;-58
2021/03/20 02:40:10;;;;;;;;;;;;;;;14.15;64.77;101174.75;5062809;28;1594;-65
2021/03/20 02:42:38;;;;;;;;;;;;;;;14.14;64.92;101183.66;5064421;28;1606;-58
2021/03/20 02:45:15;;;;;;;;;;;;;;;14.13;65.10;101187.28;5064153;28;1886;-64
2021/03/20 02:47:59;;;;;;;;;;;;;;;14.12;64.80;101186.44;5061329;28;836;-64
2021/03/20 02:50:30;;;;;;;;;;;;;;;14.12;65.10;101196.19;5060117;28;1456;-58
2021/03/20 02:53:01;;;;;;;;;;;;;;;14.10;65.09;101187.44;5073590;28;1702;-65
2021/03/20 02:55:38;;;;;;;;;;;;;;;14.12;65.10;101190.88;5064887;28;1180;-58
2021/03/20 02:58:14;;;;;;;;;;;;;;;14.13;65.00;101189.94;5063806;28;1567;-64
2021/03/20 03:03:17;;;;;;;;;;;;;;;14.11;64.89;101190.03;4998434;28;1709;-47
2021/03/20 03:05:49;;;;;;;;;;;;;;;14.09;65.21;101191.94;5004045;28;1910;-46
2021/03/20 03:08:18;;;;;;;;;;;;;;;14.09;65.06;101188.41;5003433;28;1955;-46
2021/03/20 03:10:47;;;;;;;;;;;;;;;14.09;64.63;101191.06;5023758;23;3790;-64
2021/03/20 03:13:29;;;;;;;;;;;;;;;14.12;64.89;101199.72;5041807;28;1527;-58
2021/03/20 03:16:04;;;;;;;;;;;;;;;14.08;64.91;101186.69;5042160;28;1219;-58
2021/03/20 03:18:42;;;;;;;;;;;;;;;14.07;65.16;101208.94;5042677;28;1589;-58
2021/03/20 03:21:09;;;;;;;;;;;;;;;14.04;65.00;101185.16;5041293;28;1335;-58
2021/03/20 03:23:39;;;;;;;;;;;;;;;14.05;65.02;101205.50;5043495;28;1391;-65
2021/03/20 03:26:15;;;;;;;;;;;;;;;14.04;64.87;101201.97;5041712;28;1989;-64
2021/03/20 03:28:45;;;;;;;;;;;;;;;14.06;64.79;101197.41;5044466;28;810;-58
2021/03/20 03:31:31;;;;;;;;;;;;;;;14.05;64.80;101202.84;5035130;28;1717;-64
2021/03/20 03:34:05;;;;;;;;;;;;;;;14.08;64.64;101198.19;5041408;28;1339;-58
2021/03/20 03:36:34;;;;;;;;;;;;;;;14.11;64.89;101216.63;5026284;28;1520;-64
2021/03/20 03:39:11;;;;;;;;;;;;;;;14.12;64.53;101206.84;5043315;28;1268;-64
2021/03/20 03:41:37;;;;;;;;;;;;;;;14.11;64.65;101226.41;5043193;28;1483;-58
2021/03/20 03:44:04;;;;;;;;;;;;;;;14.08;64.81;101213.28;5042236;28;1535;-58
2021/03/20 03:46:30;;;;;;;;;;;;;;;14.09;64.61;101228.31;5043677;28;1894;-64
2021/03/20 03:48:57;;;;;;;;;;;;;;;14.07;65.30;101223.06;5033979;28;1756;-58
2021/03/20 03:51:23;;;;;;;;;;;;;;;14.06;64.97;101220.50;5042141;28;971;-58
2021/03/20 03:53:49;;;;;;;;;;;;;;;14.05;64.81;101224.13;5036244;28;1558;-58
2021/03/20 03:56:27;;;;;;;;;;;;;;;14.09;64.44;101223.84;5041744;28;1546;-65
2021/03/20 03:59:18;;;;;;;;;;;;;;;14.08;64.88;101219.44;5040984;28;1185;-64
2021/03/20 04:01:59;;;;;;;;;;;;;;;14.08;64.58;101226.59;5037862;28;1711;-58
2021/03/20 04:04:34;;;;;;;;;;;;;;;14.10;64.46;101233.50;5013772;28;1955;-58
2021/03/20 04:07:16;;;;;;;;;;;;;;;14.08;64.50;101215.94;5031529;28;1663;-60
2021/03/20 04:09:47;;;;;;;;;;;;;;;14.08;64.47;101216.78;5031809;28;1320;-58
2021/03/20 04:12:27;;;;;;;;;;;;;;;14.03;64.88;101231.34;5031287;28;1220;-58
2021/03/20 04:15:02;;;;;;;;;;;;;;;14.04;64.89;101228.56;5024632;28;1215;-58
2021/03/20 04:17:36;;;;;;;;;;;;;;;13.99;65.18;101228.00;5024489;28;1517;-64
2021/03/20 04:20:18;;;;;;;;;;;;;;;14.03;64.82;101234.00;5034910;28;1737;-64
2021/03/20 04:22:46;;;;;;;;;;;;;;;14.04;64.90;101247.19;5035678;28;1495;-58
2021/03/20 04:25:11;;;;;;;;;;;;;;;14.02;64.55;101232.28;5034345;28;1973;-64
2021/03/20 04:27:42;;;;;;;;;;;;;;;13.98;64.96;101231.59;5035361;28;1567;-58
2021/03/20 04:30:08;;;;;;;;;;;;;;;14.00;64.90;101235.00;5017744;28;1360;-64
2021/03/20 04:32:42;;;;;;;;;;;;;;;13.97;65.11;101227.25;5036083;28;793;-58
2021/03/20 04:35:30;;;;;;;;;;;;;;;13.99;64.86;101232.47;5034597;28;1368;-58
2021/03/20 04:37:57;;;;;;;;;;;;;;;13.98;65.04;101242.22;5014079;28;1412;-64
2021/03/20 04:40:27;;;;;;;;;;;;;;;14.00;64.87;101245.66;5034783;28;1531;-64
2021/03/20 04:42:53;;;;;;;;;;;;;;;14.03;64.69;101257.94;5034591;28;1360;-58
2021/03/20 04:45:29;;;;;;;;;;;;;;;13.97;65.15;101245.84;5034812;28;1874;-58
2021/03/20 04:47:58;;;;;;;;;;;;;;;14.01;64.69;101251.84;5036034;28;810;-59
2021/03/20 04:50:25;;;;;;;;;;;;;;;14.03;64.75;101244.63;5034816;28;1541;-58
2021/03/20 04:52:51;;;;;;;;;;;;;;;14.03;64.53;101263.25;5034665;28;1506;-64
2021/03/20 04:55:17;;;;;;;;;;;;;;;14.03;64.28;101252.63;5035596;28;888;-58
2021/03/20 04:57:56;;;;;;;;;;;;;;;14.00;64.72;101250.97;5034711;28;1726;-64
2021/03/20 05:00:29;;;;;;;;;;;;;;;14.03;64.52;101249.94;5017242;28;1703;-64
2021/03/20 05:02:54;;;;;;;;;;;;;;;14.05;64.41;101256.03;5034664;28;1400;-64
2021/03/20 05:05:34;;;;;;;;;;;;;;;14.06;64.25;101260.38;5034642;28;1890;-64
2021/03/20 05:08:06;;;;;;;;;;;;;;;14.06;64.38;101260.38;5033452;28;718;-58
2021/03/20 05:10:37;;;;;;;;;;;;;;;14.05;64.38;101261.34;5034091;28;1721;-64
2021/03/20 05:13:05;;;;;;;;;;;;;;;14.05;64.41;101270.19;5016900;28;1619;-64
2021/03/20 05:15:32;;;;;;;;;;;;;;;14.05;64.34;101253.38;5034788;28;1595;-59
2021/03/20 05:17:58;;;;;;;;;;;;;;;14.04;64.46;101267.59;5035234;28;757;-58
2021/03/20 05:20:24;;;;;;;;;;;;;;;14.02;64.50;101273.00;5016630;28;1702;-65
2021/03/20 05:22:50;;;;;;;;;;;;;;;14.03;64.33;101273.88;5034356;28;1349;-64
2021/03/20 05:25:17;;;;;;;;;;;;;;;14.04;64.38;101286.22;5034427;28;1922;-58
2021/03/20 05:27:42;;;;;;;;;;;;;;;14.06;64.25;101276.34;5016609;28;1559;-64
2021/03/20 05:30:08;;;;;;;;;;;;;;;14.05;64.41;101270.19;5033237;28;1256;-58
2021/03/20 05:32:34;;;;;;;;;;;;;;;14.06;64.33;101276.34;5034979;28;829;-65
2021/03/20 05:35:01;;;;;;;;;;;;;;;14.10;64.00;101278.72;5033708;28;1729;-58
2021/03/20 05:37:28;;;;;;;;;;;;;;;14.08;64.21;101263.81;5034016;28;1628;-58
2021/03/20 05:39:54;;;;;;;;;;;;;;;14.12;64.33;101273.31;5016465;28;1407;-65
2021/03/20 05:42:58;;;;;;;;;;;;;;;14.11;64.05;101264.50;5033975;28;1395;-65
2021/03/20 05:45:23;;;;;;;;;;;;;;;14.14;64.14;101274.09;4973062;28;1882;-58
2021/03/20 05:47:51;;;;;;;;;;;;;;;14.22;63.95;101293.09;4974252;28;789;-65
2021/03/20 05:50:35;;;;;;;;;;;;;;;14.20;64.06;101288.81;5001890;28;1401;-65
2021/03/20 05:53:02;;;;;;;;;;;;;;;14.26;63.89;101294.63;5016789;28;1368;-64
2021/03/20 05:55:30;;;;;;;;;;;;;;;14.24;63.67;101295.66;5033407;28;1351;-58
2021/03/20 05:58:04;;;;;;;;;;;;;;;14.30;63.89;101290.88;5034301;28;765;-59
2021/03/20 06:00:46;;;;;;;;;;;;;;;14.31;63.55;101292.56;5034139;28;792;-65
2021/03/20 06:03:19;;;;;;;;;;;;;;;14.32;63.70;101280.09;5033536;28;1725;-61
2021/03/20 06:05:52;;;;;;;;;;;;;;;14.35;63.90;101281.75;5033105;28;1957;-65
2021/03/20 06:08:22;;;;;;;;;;;;;;;14.37;63.41;101293.16;5021658;28;1251;-65
2021/03/20 06:10:50;;;;;;;;;;;;;;;14.40;63.23;101290.28;5032764;28;1167;-65
2021/03/20 06:13:21;;;;;;;;;;;;;;;14.39;63.02;101281.47;5032624;28;1705;-58
2021/03/20 06:15:54;;;;;;;;;;;;;;;14.38;63.46;101271.75;5028674;28;1438;-58
2021/03/20 06:18:42;;;;;;;;;;;;;;;14.41;63.44;101276.91;5033289;28;1563;-66
2021/03/20 06:21:07;;;;;;;;;;;;;;;14.41;63.23;101290.19;5033292;28;1559;-59
2021/03/20 06:23:49;;;;;;;;;;;;;;;14.46;63.55;101279.28;5033387;28;1531;-58
2021/03/20 06:26:18;;;;;;;;;;;;;;;14.49;63.38;101284.41;5033150;28;1914;-65
2021/03/20 06:28:50;;;;;;;;;;;;;;;14.57;62.95;101302.63;5033124;28;888;-65
2021/03/20 06:31:25;;;;;;;;;;;;;;;14.57;63.15;101300.81;5024938;28;1576;-58
2021/03/20 06:33:58;;;;;;;;;;;;;;;14.63;62.99;101303.09;5032872;28;1697;-65
2021/03/20 06:36:44;;;;;;;;;;;;;;;14.59;63.06;101290.94;5033955;28;1555;-65
2021/03/20 06:39:09;;;;;;;;;;;;;;;14.64;62.63;101288.84;5030795;28;1554;-59
2021/03/20 06:41:45;;;;;;;;;;;;;;;14.66;62.37;101297.59;5033086;28;1415;-65
2021/03/20 06:44:30;;;;;;;;;;;;;;;14.67;62.67;101293.97;5029075;28;1527;-58
2021/03/20 06:46:56;;;;;;;;;;;;;;;14.68;62.68;101305.47;5023394;28;1201;-58
2021/03/20 06:49:26;;;;;;;;;;;;;;;14.68;62.57;101300.13;5023186;28;1690;-58
2021/03/20 06:51:53;;;;;;;;;;;;;;;14.70;62.68;101303.56;5034609;28;835;-59
2021/03/20 06:54:19;;;;;;;;;;;;;;;14.69;62.66;101304.53;5033092;28;1336;-65
2021/03/20 06:56:45;;;;;;;;;;;;;;;14.67;62.87;101301.94;5032705;28;1213;-65
2021/03/20 06:59:12;;;;;;;;;;;;;;;14.67;62.93;101293.97;5033067;28;1226;-62
2021/03/20 07:01:47;;;;;;;;;;;;;;;14.74;62.59;101309.56;5034263;28;1460;-58
2021/03/20 07:04:20;;;;;;;;;;;;;;;14.72;63.09;101291.00;5033307;28;1495;-65
2021/03/20 07:07:05;;;;;;;;;;;;;;;14.70;63.23;101288.47;5015669;28;1890;-58
2021/03/20 07:09:30;;;;;;;;;;;;;;;14.69;63.32;101296.53;5033126;28;1213;-59
2021/03/20 07:12:13;;;;;;;;;;;;;;;14.73;62.60;101292.75;5033162;28;1391;-59
2021/03/20 07:14:47;;;;;;;;;;;;;;;14.77;63.04;101312.03;5033454;28;1539;-65
2021/03/20 07:17:25;;;;;;;;;;;;;;;14.78;63.22;101295.09;5017299;28;1178;-59
2021/03/20 07:19:56;;;;;;;;;;;;;;;14.77;62.48;101301.41;5033451;28;1730;-59
2021/03/20 07:22:40;;;;;;;;;;;;;;;14.76;63.22;101310.31;5033348;28;1543;-65
2021/03/20 07:25:14;;;;;;;;;;;;;;;14.76;62.84;101318.31;5033201;28;1981;-59
2021/03/20 07:27:39;;;;;;;;;;;;;;;14.80;62.97;101320.72;5033098;28;1666;-58
2021/03/20 07:30:07;;;;;;;;;;;;;;;14.77;62.98;101330.69;5033780;28;1259;-65
2021/03/20 07:32:40;;;;;;;;;;;;;;;14.73;63.52;101326.50;5017102;28;1188;-65
2021/03/20 07:35:14;;;;;;;;;;;;;;;14.73;62.79;101319.34;5016281;28;1384;-59
2021/03/20 07:37:40;;;;;;;;;;;;;;;14.71;63.42;101314.13;5033779;28;1765;-58
2021/03/20 07:40:26;;;;;;;;;;;;;;;14.70;62.98;101319.53;5032923;28;1601;-64
2021/03/20 07:43:10;;;;;;;;;;;;;;;14.69;62.95;101324.00;5020191;28;1717;-58
2021/03/20 07:45:35;;;;;;;;;;;;;;;14.70;62.81;101331.06;5032895;28;1952;-65
2021/03/20 07:48:02;;;;;;;;;;;;;;;14.76;62.72;101336.94;5034577;28;734;-59
2021/03/20 07:50:32;;;;;;;;;;;;;;;14.77;63.11;101331.53;5033265;28;1554;-58
2021/03/20 07:53:07;;;;;;;;;;;;;;;14.76;63.16;101334.28;5032922;28;1166;-59
2021/03/20 07:55:51;;;;;;;;;;;;;;;14.76;62.87;101328.94;5037210;28;1207;-64
2021/03/20 07:58:34;;;;;;;;;;;;;;;14.81;63.23;101333.06;5037649;28;1701;-65
2021/03/20 08:01:01;;;;;;;;;;;;;;;14.79;63.00;101329.63;5034278;28;805;-58
2021/03/20 08:03:28;;;;;;;;;;;;;;;14.79;63.46;101345.59;5036978;28;1631;-59
2021/03/20 08:05:54;;;;;;;;;;;;;;;14.85;63.43;101341.72;5037249;28;1894;-65
2021/03/20 08:08:22;;;;;;;;;;;;;;;14.79;63.59;101345.59;5020691;28;1156;-58
2021/03/20 08:10:52;;;;;;;;;;;;;;;14.79;63.78;101337.63;5036897;28;1365;-65
2021/03/20 08:13:24;;;;;;;;;;;;;;;14.79;63.29;101342.09;5036820;28;1369;-65
2021/03/20 08:15:56;;;;;;;;;;;;;;;14.81;63.60;101334.88;5032180;28;1388;-65
2021/03/20 08:18:23;;;;;;;;;;;;;;;14.80;63.81;101339.34;5019883;28;1574;-58
2021/03/20 08:21:07;;;;;;;;;;;;;;;14.78;63.47;101340.38;5037202;28;785;-58
2021/03/20 08:23:52;;;;;;;;;;;;;;;14.79;63.03;101344.75;5033288;28;1881;-58
2021/03/20 08:26:36;;;;;;;;;;;;;;;14.79;63.47;101334.94;5035439;28;1975;-66
2021/03/20 08:29:24;;;;;;;;;;;;;;;14.80;62.89;101341.13;5036109;28;1661;-58
2021/03/20 08:31:50;;;;;;;;;;;;;;;14.88;63.61;101333.53;5033663;28;811;-65
2021/03/20 08:34:26;;;;;;;;;;;;;;;14.91;63.30;101331.53;5036872;28;1352;-65
2021/03/20 08:36:52;;;;;;;;;;;;;;;14.88;63.64;101333.53;5028991;28;1228;-58
2021/03/20 08:39:20;;;;;;;;;;;;;;;14.85;63.33;101321.25;5019254;28;1555;-59
2021/03/20 08:41:52;;;;;;;;;;;;;;;14.87;63.06;101339.81;5036176;28;1340;-58
2021/03/20 08:44:36;;;;;;;;;;;;;;;14.87;63.48;101321.16;5036508;28;1334;-59
2021/03/20 08:47:20;;;;;;;;;;;;;;;14.87;63.61;101345.13;5034752;28;837;-59
2021/03/20 08:50:08;;;;;;;;;;;;;;;14.85;63.11;101320.41;5036379;28;1507;-65
2021/03/20 08:52:52;;;;;;;;;;;;;;;14.87;63.08;101321.16;5011858;28;1142;-58
2021/03/20 08:55:29;;;;;;;;;;;;;;;14.91;63.17;101320.88;5032440;28;1316;-65
2021/03/20 08:58:02;;;;;;;;;;;;;;;14.89;63.38;101314.78;5036500;28;831;-58
2021/03/20 09:00:38;;;;;;;;;;;;;;;14.93;63.41;101328.78;5036903;28;974;-65
2021/03/20 09:03:16;;;;;;;;;;;;;;;14.95;62.67;101308.22;5036254;28;1539;-59
2021/03/20 09:05:47;;;;;;;;;;;;;;;14.93;62.75;101322.59;5031244;28;1872;-59
2021/03/20 09:08:31;;;;;;;;;;;;;;;14.94;63.04;101325.19;5036962;28;854;-58
2021/03/20 09:11:07;;;;;;;;;;;;;;;14.97;63.16;101324.13;5035560;28;1625;-66
2021/03/20 09:13:39;;;;;;;;;;;;;;;14.95;63.07;101329.53;5035355;28;1558;-65
2021/03/20 09:16:14;;;;;;;;;;;;;;;14.94;63.11;101317.19;5018336;28;1694;-59
2021/03/20 09:18:40;;;;;;;;;;;;;;;14.90;62.61;101310.31;5018456;28;1534;-65
2021/03/20 09:21:06;;;;;;;;;;;;;;;14.92;62.81;101311.06;5035986;28;1625;-59
2021/03/20 09:23:34;;;;;;;;;;;;;;;14.99;62.81;101339.03;5036665;28;791;-58
2021/03/20 09:26:01;;;;;;;;;;;;;;;14.93;62.56;101320.78;5036198;28;1914;-59
2021/03/20 09:28:46;;;;;;;;;;;;;;;14.94;62.43;101333.16;5035810;28;1717;-58
2021/03/20 09:31:24;;;;;;;;;;;;;;;14.96;62.98;101331.28;5035675;28;1734;-59
2021/03/20 09:33:49;;;;;;;;;;;;;;;14.96;62.72;101325.06;5035604;28;1730;-59
2021/03/20 09:36:21;;;;;;;;;;;;;;;14.97;63.24;101319.66;5035009;28;1547;-59
2021/03/20 09:38:50;;;;;;;;;;;;;;;14.99;62.71;101325.72;5035032;28;1255;-58
2021/03/20 09:41:15;;;;;;;;;;;;;;;15.00;63.15;101332.78;5034126;28;1539;-65
2021/03/20 09:43:40;;;;;;;;;;;;;;;14.99;62.96;101336.38;5036238;28;764;-58
2021/03/20 09:46:24;;;;;;;;;;;;;;;15.00;62.86;101329.25;5035499;28;1890;-59
2021/03/20 09:48:50;;;;;;;;;;;;;;;15.00;62.45;101331.91;5035047;28;1416;-65
2021/03/20 09:51:34;;;;;;;;;;;;;;;15.00;62.99;101326.56;5036569;28;825;-59
2021/03/20 09:54:19;;;;;;;;;;;;;;;14.97;63.08;101322.31;5035283;28;1733;-58
2021/03/20 09:56:44;;;;;;;;;;;;;;;15.02;62.64;101324.69;5035085;28;1692;-65
2021/03/20 09:59:10;;;;;;;;;;;;;;;15.00;62.83;101326.56;5012688;28;1564;-65
2021/03/20 10:01:43;;;;;;;;;;;;;;;14.98;62.84;101331.16;5018509;28;1585;-65
2021/03/20 10:04:28;;;;;;;;;;;;;;;15.02;62.55;101338.00;5035149;28;1693;-65
2021/03/20 10:07:12;;;;;;;;;;;;;;;15.01;63.19;101325.66;5034191;28;2028;-58
2021/03/20 10:09:57;;;;;;;;;;;;;;;15.02;63.21;101330.88;5017454;28;1594;-58
2021/03/20 10:12:24;;;;;;;;;;;;;;;15.03;63.02;101345.91;5033886;28;1503;-58
2021/03/20 10:14:52;;;;;;;;;;;;;;;15.02;62.60;101351.31;5034697;28;1395;-64
2021/03/20 10:17:24;;;;;;;;;;;;;;;15.02;63.37;101330.88;5035619;28;842;-64
2021/03/20 10:19:50;;;;;;;;;;;;;;;15.01;63.54;101317.66;5035146;28;1746;-59
2021/03/20 10:22:26;;;;;;;;;;;;;;;15.07;63.22;101342.09;5034943;28;1475;-59
2021/03/20 10:24:52;;;;;;;;;;;;;;;15.04;63.37;101342.28;5034507;28;1975;-58
2021/03/20 10:27:30;;;;;;;;;;;;;;;15.10;62.88;101338.41;5033978;28;1274;-58
2021/03/20 10:30:10;;;;;;;;;;;;;;;15.06;62.85;101326.19;5033999;28;1197;-65
2021/03/20 10:32:35;;;;;;;;;;;;;;;15.07;63.22;101336.75;5023447;28;1395;-65
2021/03/20 10:35:04;;;;;;;;;;;;;;;15.04;63.58;101320.09;5029638;28;1502;-58
2021/03/20 10:37:31;;;;;;;;;;;;;;;15.00;62.82;101334.56;5031478;28;1377;-64
2021/03/20 10:40:10;;;;;;;;;;;;;;;15.00;63.44;101338.13;5033855;28;1194;-65
2021/03/20 10:42:38;;;;;;;;;;;;;;;14.97;63.24;101318.78;5026156;28;1411;-65
2021/03/20 10:45:08;;;;;;;;;;;;;;;15.00;63.43;101316.81;5030802;28;1885;-64
2021/03/20 10:47:35;;;;;;;;;;;;;;;14.99;63.12;101314.22;5031276;28;1407;-58
2021/03/20 10:50:06;;;;;;;;;;;;;;;15.01;62.92;101321.16;5011609;28;1548;-58
2021/03/20 10:52:33;;;;;;;;;;;;;;;15.02;63.42;101316.69;5034879;28;1798;-58
2021/03/20 10:55:00;;;;;;;;;;;;;;;14.98;63.40;101302.72;5034247;28;1376;-58
2021/03/20 10:57:27;;;;;;;;;;;;;;;15.01;63.25;101307.84;5033630;28;1396;-59
2021/03/20 10:59:52;;;;;;;;;;;;;;;14.97;63.67;101300.16;5034118;28;1547;-59
2021/03/20 11:02:26;;;;;;;;;;;;;;;14.97;62.97;101282.38;5034936;28;1372;-59
2021/03/20 11:05:08;;;;;;;;;;;;;;;15.00;63.77;101279.53;5034036;28;1964;-60
2021/03/20 11:07:33;;;;;;;;;;;;;;;14.97;62.63;101269.03;5025889;28;1313;-65
2021/03/20 11:10:09;;;;;;;;;;;;;;;15.00;63.43;101278.63;5024652;28;1322;-65
2021/03/20 11:12:34;;;;;;;;;;;;;;;15.01;63.30;101264.38;5032564;28;1420;-58
2021/03/20 11:15:00;;;;;;;;;;;;;;;15.04;63.03;101270.38;5025077;28;1424;-65
2021/03/20 11:17:28;;;;;;;;;;;;;;;15.03;63.42;101268.66;5034960;28;811;-58
2021/03/20 11:20:04;;;;;;;;;;;;;;;15.05;63.07;101272.06;5033803;28;1498;-64
2021/03/20 11:22:29;;;;;;;;;;;;;;;15.02;62.84;101255.44;5033876;28;1583;-59
2021/03/20 11:24:57;;;;;;;;;;;;;;;15.06;63.33;101263.16;5032956;28;1966;-58
2021/03/20 11:27:24;;;;;;;;;;;;;;;15.03;63.61;101262.47;5033777;28;1504;-58
2021/03/20 11:29:53;;;;;;;;;;;;;;;14.99;63.74;101251.16;5032648;28;1434;-65
2021/03/20 11:32:30;;;;;;;;;;;;;;;15.06;63.87;101257.81;5026015;28;1042;-65
2021/03/20 11:35:01;;;;;;;;;;;;;;;15.06;63.51;101254.28;5033698;28;1765;-58
2021/03/20 11:37:27;;;;;;;;;;;;;;;15.08;63.32;101255.91;5033402;28;1196;-58
2021/03/20 11:39:53;;;;;;;;;;;;;;;15.07;63.35;101242.69;5032924;28;1279;-59
2021/03/20 11:42:21;;;;;;;;;;;;;;;15.05;63.03;101244.59;5033439;28;1278;-58
2021/03/20 11:44:49;;;;;;;;;;;;;;;15.04;63.20;101245.53;5033631;28;1882;-62
2021/03/20 11:47:25;;;;;;;;;;;;;;;15.05;63.92;101240.09;5024060;28;1069;-58
2021/03/20 11:50:01;;;;;;;;;;;;;;;14.99;63.92;101240.50;5009783;28;1734;-58
2021/03/20 11:52:47;;;;;;;;;;;;;;;15.00;63.74;101231.59;5034379;28;1208;-65
2021/03/20 11:55:28;;;;;;;;;;;;;;;14.98;63.25;101232.59;5013258;28;1244;-64
2021/03/20 11:57:59;;;;;;;;;;;;;;;14.91;63.74;101219.69;5033560;28;863;-65
2021/03/20 12:00:32;;;;;;;;;;;;;;;14.90;63.82;101219.78;5033704;28;1661;-58
2021/03/20 12:02:59;;;;;;;;;;;;;;;14.88;63.29;101222.56;5029490;28;1466;-58
2021/03/20 12:05:26;;;;;;;;;;;;;;;14.85;64.30;101216.56;5018487;28;1886;-58
2021/03/20 12:08:11;;;;;;;;;;;;;;;14.89;64.26;101231.41;5023631;28;1062;-64
2021/03/20 12:10:36;;;;;;;;;;;;;;;14.84;63.72;101212.19;5033118;28;1511;-65
2021/03/20 12:13:02;;;;;;;;;;;;;;;14.83;64.10;101223.81;5033722;28;1609;-58
2021/03/20 12:15:31;;;;;;;;;;;;;;;14.86;64.42;101226.25;5033357;28;1488;-58
2021/03/20 12:17:58;;;;;;;;;;;;;;;14.79;63.72;101211.63;5033674;28;1074;-64
2021/03/20 12:20:26;;;;;;;;;;;;;;;14.83;64.04;101198.03;5023062;28;1323;-59
2021/03/20 12:22:52;;;;;;;;;;;;;;;14.80;63.56;101208.00;5022326;28;1505;-64
2021/03/20 12:25:21;;;;;;;;;;;;;;;14.81;63.84;101209.72;5023630;28;1914;-64
2021/03/20 12:27:48;;;;;;;;;;;;;;;14.82;64.10;101209.63;5023680;28;1333;-58
2021/03/20 12:30:20;;;;;;;;;;;;;;;14.81;64.52;101209.72;5020964;28;1428;-58
2021/03/20 12:32:47;;;;;;;;;;;;;;;14.83;64.56;101216.66;5022765;28;1404;-58
2021/03/20 12:35:13;;;;;;;;;;;;;;;14.79;63.76;101207.16;5029229;28;1243;-62
2021/03/20 12:37:39;;;;;;;;;;;;;;;14.76;64.10;101198.50;5027596;28;1229;-64
2021/03/20 12:40:04;;;;;;;;;;;;;;;14.80;63.79;101197.34;5028250;28;1565;-58
2021/03/20 12:42:30;;;;;;;;;;;;;;;14.79;64.00;101206.31;5026850;28;1535;-65
2021/03/20 12:44:55;;;;;;;;;;;;;;;14.78;64.08;101204.59;5036817;28;1947;-58
2021/03/20 12:47:20;;;;;;;;;;;;;;;14.74;64.44;101189.75;5033200;28;1108;-58
2021/03/20 12:49:46;;;;;;;;;;;;;;;14.71;64.29;101189.00;5032502;28;1538;-58
2021/03/20 12:52:16;;;;;;;;;;;;;;;14.72;64.32;101195.19;5037640;28;812;-58
2021/03/20 12:54:44;;;;;;;;;;;;;;;14.75;64.45;101215.44;5036623;28;1725;-64
2021/03/20 12:57:19;;;;;;;;;;;;;;;14.69;63.99;101198.06;5013546;28;1544;-58
2021/03/20 12:59:44;;;;;;;;;;;;;;;14.71;64.21;101210.31;5029088;28;1231;-64
2021/03/20 13:02:11;;;;;;;;;;;;;;;14.65;64.59;101189.41;5016552;28;1475;-64
2021/03/20 13:04:37;;;;;;;;;;;;;;;14.74;64.37;101203.06;5036235;28;1765;-60
2021/03/20 13:07:02;;;;;;;;;;;;;;;14.73;63.76;101204.03;5036143;28;1955;-64
2021/03/20 13:09:27;;;;;;;;;;;;;;;14.74;63.83;101187.09;5031731;28;1524;-64
2021/03/20 13:11:54;;;;;;;;;;;;;;;14.74;63.58;101192.41;5030309;28;1190;-59